createdAt,value
2022-11-16T05:03:22.594Z,3.25
2022-11-16T05:07:26.390Z,3.13
2022-11-16T05:11:36.673Z,3.22
2022-11-16T05:15:39.517Z,3.20
2022-11-16T05:20:00.927Z,2.97
2022-11-16T05:24:25.071Z,3.22
2022-11-16T05:28:28.505Z,3.17
2022-11-16T05:32:31.674Z,3.13
2022-11-16T05:36:37.658Z,3.15
2022-11-16T05:40:40.348Z,3.22
2022-11-16T05:44:43.033Z,3.20
2022-11-16T05:48:46.167Z,2.97
2022-11-16T05:52:50.537Z,3.20
2022-11-16T05:56:53.867Z,3.00
2022-11-16T06:00:58.578Z,3.10
2022-11-16T06:05:02.007Z,4.53
2022-11-16T06:13:10.063Z,3.10
2022-11-16T06:17:14.468Z,3.50
2022-11-16T06:25:23.312Z,3.70
2022-11-16T06:29:26.000Z,3.67
2022-11-16T06:37:39.187Z,3.95
2022-11-16T06:41:43.880Z,3.55
2022-11-16T06:45:49.849Z,3.47
2022-11-16T06:49:52.613Z,3.90
2022-11-16T06:53:58.030Z,3.70
2022-11-16T06:58:04.054Z,3.60
2022-11-16T07:02:07.273Z,3.78
2022-11-16T07:06:14.610Z,3.63
2022-11-16T07:10:20.204Z,3.70
2022-11-16T07:14:24.742Z,4.00
2022-11-16T07:18:27.481Z,3.38
2022-11-16T07:22:30.701Z,3.28
2022-11-16T07:26:35.203Z,3.45
2022-11-16T07:30:46.714Z,3.50
2022-11-16T07:34:59.043Z,3.47
2022-11-16T07:39:02.973Z,3.60
2022-11-16T07:43:06.070Z,3.80
2022-11-16T07:47:29.188Z,3.78
2022-11-16T07:51:33.205Z,3.88
2022-11-16T07:55:54.281Z,3.88
2022-11-16T07:59:58.273Z,4.00
2022-11-16T08:04:02.770Z,4.10
2022-11-16T08:08:06.337Z,3.28
2022-11-16T08:12:11.454Z,3.47
2022-11-16T08:16:16.399Z,3.45
2022-11-16T08:20:22.394Z,3.30
2022-11-16T08:24:27.769Z,3.50
2022-11-16T08:28:31.576Z,4.00
2022-11-16T08:32:35.089Z,4.28
2022-11-16T08:48:55.884Z,4.82
2022-11-16T08:53:01.071Z,5.22
2022-11-16T08:57:03.827Z,5.10
2022-11-16T09:01:10.911Z,5.07
2022-11-16T09:05:13.572Z,4.55
2022-11-16T09:09:17.552Z,4.73
2022-11-16T09:13:20.146Z,4.25
2022-11-16T09:17:23.362Z,5.33
2022-11-16T09:21:27.583Z,4.35
2022-11-16T09:25:31.535Z,5.05
2022-11-16T09:29:34.136Z,5.80
2022-11-16T09:33:37.992Z,5.40
2022-11-16T09:37:40.800Z,5.70
2022-11-16T09:42:06.507Z,5.73
2022-11-16T09:46:21.052Z,6.22
2022-11-16T09:50:33.300Z,5.45
2022-11-16T09:54:40.718Z,5.63
2022-11-16T09:58:52.201Z,5.40
2022-11-16T10:03:02.044Z,5.70
2022-11-16T10:07:09.068Z,5.60
2022-11-16T10:11:29.049Z,7.40
2022-11-16T10:15:58.120Z,5.40
2022-11-16T10:20:17.452Z,6.30
2022-11-16T10:24:29.117Z,6.68
2022-11-16T10:29:09.589Z,6.07
2022-11-16T10:33:18.217Z,6.20
2022-11-16T10:37:21.790Z,6.07
2022-11-16T10:41:30.424Z,5.97
2022-11-16T10:45:40.533Z,6.13
2022-11-16T10:49:52.633Z,5.88
2022-11-16T10:53:56.013Z,6.28
2022-11-16T10:58:00.546Z,6.50
2022-11-16T11:02:27.715Z,6.53
2022-11-16T11:06:32.767Z,6.30
2022-11-16T11:10:38.649Z,5.82
2022-11-16T11:14:41.273Z,6.15
2022-11-16T11:18:43.976Z,5.97
2022-11-16T11:22:53.516Z,5.90
2022-11-16T11:26:58.761Z,6.10
2022-11-16T11:31:04.768Z,6.00
2022-11-16T11:35:15.800Z,6.30
2022-11-16T11:39:35.084Z,5.93
2022-11-16T11:43:38.441Z,5.60
2022-11-16T11:48:04.234Z,5.70
2022-11-16T11:52:17.164Z,6.00
2022-11-16T11:56:21.573Z,5.57
2022-11-16T12:00:26.025Z,6.00
2022-11-16T12:05:05.588Z,6.65
2022-11-16T12:09:31.860Z,6.70
2022-11-16T12:13:52.771Z,5.95
2022-11-16T12:18:03.600Z,6.53
2022-11-16T12:22:19.701Z,6.15
2022-11-16T12:26:29.889Z,6.32
2022-11-16T12:30:38.925Z,6.60
2022-11-16T12:34:56.440Z,5.60
2022-11-16T12:39:12.210Z,6.20
2022-11-16T12:43:22.279Z,6.47
2022-11-16T12:47:34.324Z,5.97
2022-11-16T12:51:51.969Z,5.82
2022-11-16T12:56:06.161Z,5.82
2022-11-16T13:00:11.414Z,5.85
2022-11-16T13:04:19.625Z,6.53
2022-11-16T13:08:39.504Z,6.18
2022-11-16T13:12:45.462Z,6.40
2022-11-16T13:16:49.096Z,6.13
2022-11-16T13:20:59.580Z,6.60
2022-11-16T13:25:13.510Z,6.45
2022-11-16T13:29:23.368Z,6.82
2022-11-16T13:33:38.689Z,6.95
2022-11-16T13:37:50.059Z,7.00
2022-11-16T13:42:07.265Z,7.18
2022-11-16T13:46:22.389Z,6.72
2022-11-16T13:50:38.218Z,7.25
2022-11-16T13:54:46.635Z,6.88
2022-11-16T13:58:52.445Z,7.15
2022-11-16T14:03:27.900Z,6.82
2022-11-16T14:07:36.860Z,6.97
2022-11-16T14:11:41.124Z,7.05
2022-11-16T14:15:43.749Z,6.80
2022-11-16T14:19:55.909Z,6.83
2022-11-16T14:24:11.538Z,6.65
2022-11-16T14:28:43.544Z,7.40
2022-11-16T14:32:48.489Z,7.38
2022-11-16T14:36:51.541Z,6.65
2022-11-16T14:40:59.847Z,7.20
2022-11-16T14:45:07.455Z,6.78
2022-11-16T14:49:15.978Z,7.00
2022-11-16T14:53:20.978Z,7.13
2022-11-16T14:57:24.941Z,7.22
2022-11-16T15:01:30.626Z,6.50
2022-11-16T15:05:36.186Z,6.88
2022-11-16T15:09:41.694Z,6.22
2022-11-16T15:13:46.865Z,6.55
2022-11-16T15:18:07.398Z,6.18
2022-11-16T15:22:18.703Z,6.78
2022-11-16T15:26:23.058Z,5.70
2022-11-16T15:30:27.690Z,5.57
2022-11-16T15:34:32.160Z,6.18
2022-11-16T15:38:37.430Z,6.40
2022-11-16T15:42:42.604Z,6.60
2022-11-16T15:46:47.991Z,6.28
2022-11-16T15:51:08.278Z,6.40
2022-11-16T15:55:31.744Z,6.40
2022-11-16T15:59:36.544Z,6.22
2022-11-16T16:03:39.856Z,6.47
2022-11-16T16:07:45.710Z,6.82
2022-11-16T16:11:48.799Z,5.82
2022-11-16T16:16:12.890Z,6.78
2022-11-16T16:20:19.238Z,6.35
2022-11-16T16:24:38.728Z,6.90
2022-11-16T16:28:41.804Z,7.15
2022-11-16T16:32:49.172Z,7.97
2022-11-16T16:36:51.826Z,7.10
2022-11-16T16:41:01.331Z,7.10
2022-11-16T16:45:04.176Z,7.82
2022-11-16T16:49:07.911Z,6.82
2022-11-16T16:53:12.139Z,8.32
2022-11-16T16:57:17.201Z,9.05
2022-11-16T17:01:19.835Z,9.15
2022-11-16T17:05:22.513Z,9.30
2022-11-16T17:09:25.126Z,10.27
2022-11-16T17:13:29.080Z,9.87
2022-11-16T17:17:32.629Z,9.25
2022-11-16T17:25:38.064Z,9.57
2022-11-16T17:29:42.010Z,9.32
2022-11-16T17:33:44.792Z,9.93
2022-11-16T17:37:47.609Z,8.90
2022-11-16T17:41:50.916Z,9.02
2022-11-16T17:46:02.999Z,9.80
2022-11-16T17:50:06.380Z,10.13
2022-11-16T17:54:10.033Z,10.27
2022-11-16T17:58:12.651Z,10.27
2022-11-16T18:02:16.650Z,10.90
2022-11-16T18:06:21.361Z,10.85
2022-11-16T18:10:24.322Z,10.40
2022-11-16T18:14:27.146Z,10.65
2022-11-16T18:18:31.174Z,10.75
2022-11-16T18:22:33.784Z,10.80
2022-11-16T18:26:36.583Z,9.83
2022-11-16T18:30:39.483Z,10.70
2022-11-16T18:34:44.126Z,9.63
2022-11-16T18:38:47.120Z,11.10
2022-11-16T18:42:49.730Z,9.73
2022-11-16T18:46:52.395Z,9.87
2022-11-16T18:50:59.574Z,9.53
2022-11-16T18:55:02.380Z,10.52
2022-11-16T18:59:05.153Z,9.68
2022-11-16T19:03:11.250Z,10.10
2022-11-16T19:07:15.553Z,8.63
2022-11-16T19:11:18.462Z,8.65
2022-11-16T19:15:21.122Z,9.55
2022-11-16T19:19:25.363Z,9.23
2022-11-16T19:23:29.398Z,9.77
2022-11-16T19:27:32.441Z,8.38
2022-11-16T19:31:35.044Z,8.50
2022-11-16T19:35:38.020Z,9.10
2022-11-16T19:39:42.042Z,7.82
2022-11-16T19:43:44.704Z,8.45
2022-11-16T19:47:47.347Z,8.53
2022-11-16T19:51:50.271Z,8.53
2022-11-16T19:55:57.392Z,7.75
2022-11-16T19:59:59.998Z,8.30
2022-11-16T20:04:04.039Z,9.27
2022-11-16T20:08:06.666Z,9.35
2022-11-16T20:12:10.608Z,8.50
2022-11-16T20:16:14.966Z,9.27
2022-11-16T20:20:17.732Z,9.25
2022-11-16T20:24:20.389Z,8.97
2022-11-16T20:28:24.313Z,9.20
2022-11-16T20:32:26.905Z,9.18
2022-11-16T20:36:30.860Z,10.57
2022-11-16T20:40:33.491Z,11.13
2022-11-16T20:44:37.414Z,11.13
2022-11-16T20:48:41.436Z,12.85
2022-11-16T20:52:47.248Z,8.90
2022-11-16T20:56:54.149Z,9.05
2022-11-16T21:01:00.716Z,8.67
2022-11-16T21:05:03.456Z,9.68
2022-11-16T21:09:06.531Z,8.83
2022-11-16T21:13:31.007Z,8.98
2022-11-16T21:17:35.309Z,8.60
2022-11-16T21:21:40.457Z,11.27
2022-11-16T21:25:43.290Z,10.85
2022-11-16T21:29:45.859Z,9.97
2022-11-16T21:33:49.832Z,9.07
2022-11-16T21:37:52.404Z,9.45
2022-11-16T21:41:54.996Z,9.80
2022-11-16T21:46:03.172Z,8.67
2022-11-16T21:50:30.582Z,8.60
2022-11-16T21:54:47.226Z,9.73
2022-11-16T21:58:52.568Z,9.38
